createdAt,value
2019-05-10T00:00:54.557Z,3.10
2019-05-10T00:01:54.577Z,3.10
2019-05-10T00:02:13.888Z,3.40
2019-05-10T00:02:54.591Z,2.30
2019-05-10T00:03:54.606Z,2.80
2019-05-10T00:04:54.642Z,2.50
2019-05-10T00:05:00.467Z,3.53
2019-05-10T00:05:54.640Z,2.70
2019-05-10T00:06:54.656Z,3.00
2019-05-10T00:07:47.302Z,4.37
2019-05-10T00:07:54.671Z,2.90
2019-05-10T00:08:54.689Z,2.90
2019-05-10T00:09:54.702Z,3.00
2019-05-10T00:10:15.386Z,6.50
2019-05-10T00:10:54.719Z,3.70
2019-05-10T00:11:54.738Z,5.40
2019-05-10T00:12:54.754Z,5.80
2019-05-10T00:13:09.363Z,8.93
2019-05-10T00:13:54.777Z,6.30
2019-05-10T00:14:54.784Z,7.80
2019-05-10T00:15:38.652Z,9.60
2019-05-10T00:15:54.803Z,7.50
2019-05-10T00:16:54.883Z,7.70
2019-05-10T00:17:54.833Z,9.30
2019-05-10T00:18:07.552Z,12.07
2019-05-10T00:18:54.853Z,9.90
2019-05-10T00:19:54.866Z,9.90
2019-05-10T00:20:36.430Z,10.50
2019-05-10T00:20:54.884Z,9.30
2019-05-10T00:21:54.899Z,9.90
2019-05-10T00:22:54.915Z,11.10
2019-05-10T00:23:05.439Z,12.37
2019-05-10T00:23:54.935Z,10.90
2019-05-10T00:25:03.784Z,11.20
2019-05-10T00:25:34.427Z,12.63
2019-05-10T00:25:54.963Z,11.10
2019-05-10T00:26:54.984Z,11.30
2019-05-10T00:27:55.012Z,10.40
2019-05-10T00:28:09.242Z,12.27
2019-05-10T00:28:55.015Z,11.10
2019-05-10T00:29:55.029Z,10.50
2019-05-10T00:30:38.340Z,12.20
2019-05-10T00:30:55.055Z,11.50
2019-05-10T00:31:55.061Z,12.00
2019-05-10T00:32:55.089Z,11.60
2019-05-10T00:33:07.363Z,12.50
2019-05-10T00:33:55.108Z,10.90
2019-05-10T00:34:55.118Z,12.00
2019-05-10T00:35:36.436Z,11.90
2019-05-10T00:35:55.127Z,12.00
2019-05-10T00:36:55.148Z,11.10
2019-05-10T00:37:55.163Z,12.00
2019-05-10T00:38:05.427Z,11.93
2019-05-10T00:38:55.189Z,12.10
2019-05-10T00:39:55.195Z,11.50
2019-05-10T00:40:34.419Z,10.83
2019-05-10T00:40:55.214Z,11.20
2019-05-10T00:41:55.228Z,11.60
2019-05-10T00:42:55.244Z,10.70
2019-05-10T00:43:03.293Z,11.70
2019-05-10T00:43:55.264Z,10.90
2019-05-10T00:44:55.289Z,11.80
2019-05-10T00:45:32.218Z,11.10
2019-05-10T00:45:55.296Z,11.10
2019-05-10T00:46:55.315Z,10.70
2019-05-10T00:47:55.328Z,11.30
2019-05-10T00:48:01.179Z,11.53
2019-05-10T00:48:55.346Z,10.90
2019-05-10T00:49:55.361Z,11.40
2019-05-10T00:50:30.191Z,11.67
2019-05-10T00:50:55.377Z,11.80
2019-05-10T00:51:55.396Z,11.30
2019-05-10T00:52:55.415Z,12.10
2019-05-10T00:52:59.056Z,11.87
2019-05-10T00:53:55.426Z,11.60
2019-05-10T00:54:55.448Z,10.80
2019-05-10T00:55:28.049Z,11.53
2019-05-10T00:55:55.462Z,10.50
2019-05-10T00:56:55.483Z,10.80
2019-05-10T00:57:55.499Z,10.70
2019-05-10T00:57:56.934Z,11.17
2019-05-10T00:58:55.528Z,11.40
2019-05-10T00:59:55.544Z,11.10
2019-05-10T01:00:25.927Z,11.20
2019-05-10T01:00:55.551Z,10.50
2019-05-10T01:01:55.565Z,10.50
2019-05-10T01:02:55.037Z,11.13
2019-05-10T01:02:55.596Z,9.60
2019-05-10T01:03:55.599Z,10.00
2019-05-10T01:04:55.612Z,10.50
2019-05-10T01:05:24.017Z,12.00
2019-05-10T01:05:55.631Z,11.00
2019-05-10T01:06:56.538Z,10.50
2019-05-10T01:07:53.136Z,9.50
2019-05-10T01:07:55.669Z,9.70
2019-05-10T01:08:55.683Z,9.90
2019-05-10T01:09:55.694Z,9.40
2019-05-10T01:10:22.110Z,10.17
2019-05-10T01:10:55.716Z,10.00
2019-05-10T01:11:55.731Z,9.80
2019-05-10T01:12:50.988Z,10.10
2019-05-10T01:12:55.745Z,9.80
2019-05-10T01:13:55.761Z,9.30
2019-05-10T01:14:55.785Z,9.60
2019-05-10T01:15:19.978Z,9.27
2019-05-10T01:15:55.802Z,9.60
2019-05-10T01:16:55.824Z,9.20
2019-05-10T01:17:48.867Z,8.70
2019-05-10T01:17:55.848Z,8.90
2019-05-10T01:18:55.854Z,8.80
2019-05-10T01:19:55.898Z,9.00
2019-05-10T01:20:18.067Z,9.07
2019-05-10T01:20:55.884Z,8.90
2019-05-10T01:21:55.899Z,9.30
2019-05-10T01:22:46.959Z,8.13
2019-05-10T01:22:55.917Z,8.90
2019-05-10T01:23:55.964Z,9.00
2019-05-10T01:24:55.952Z,9.20
2019-05-10T01:25:16.057Z,9.40
2019-05-10T01:25:55.968Z,8.60
2019-05-10T01:26:55.983Z,9.60
2019-05-10T01:27:45.044Z,8.83
2019-05-10T01:27:56.002Z,9.60
2019-05-10T01:28:56.014Z,9.70
2019-05-10T01:29:56.034Z,9.80
2019-05-10T01:30:14.514Z,10.17
2019-05-10T01:30:56.051Z,10.30
2019-05-10T01:31:56.067Z,10.70
2019-05-10T01:32:43.602Z,10.07
2019-05-10T01:32:56.084Z,10.40
2019-05-10T01:33:56.102Z,10.50
2019-05-10T01:34:56.117Z,10.30
2019-05-10T01:35:12.537Z,10.67
2019-05-10T01:35:56.135Z,11.50
2019-05-10T01:36:56.158Z,11.50
2019-05-10T01:37:41.472Z,12.47
2019-05-10T01:37:56.170Z,11.80
2019-05-10T01:38:56.186Z,12.20
2019-05-10T01:39:56.204Z,12.40
2019-05-10T01:40:10.426Z,12.03
2019-05-10T01:40:56.217Z,12.70
2019-05-10T01:41:56.235Z,13.30
2019-05-10T01:42:39.407Z,12.20
2019-05-10T01:42:56.249Z,12.80
2019-05-10T01:43:56.270Z,13.00
2019-05-10T01:44:56.286Z,13.10
2019-05-10T01:45:08.419Z,13.20
2019-05-10T01:45:56.307Z,13.60
2019-05-10T01:46:56.342Z,13.50
2019-05-10T01:47:37.393Z,12.30
2019-05-10T01:47:56.337Z,13.90
2019-05-10T01:48:56.356Z,13.40
2019-05-10T01:49:56.374Z,13.20
2019-05-10T01:50:06.508Z,13.10
2019-05-10T01:50:56.393Z,14.20
2019-05-10T01:51:56.402Z,14.10
2019-05-10T01:52:35.475Z,13.67
2019-05-10T01:52:56.423Z,13.60
2019-05-10T01:53:56.436Z,13.60
2019-05-10T01:54:56.457Z,13.00
2019-05-10T01:55:04.468Z,13.23
2019-05-10T01:55:56.470Z,12.80
2019-05-10T01:56:56.488Z,13.00
2019-05-10T01:57:33.460Z,12.80
2019-05-10T01:57:56.512Z,13.70
2019-05-10T01:58:56.526Z,12.80
2019-05-10T01:59:56.537Z,12.90
2019-05-10T02:00:02.363Z,12.47
2019-05-10T02:00:56.556Z,12.90
2019-05-10T02:01:56.608Z,12.80
2019-05-10T02:02:31.342Z,13.27
2019-05-10T02:02:56.588Z,12.20
2019-05-10T02:03:56.608Z,12.90
2019-05-10T02:04:56.620Z,13.00
2019-05-10T02:05:00.313Z,11.93
2019-05-10T02:05:56.638Z,12.50
2019-05-10T02:06:56.658Z,12.20
2019-05-10T02:07:29.342Z,11.90
2019-05-10T02:07:56.683Z,12.10
2019-05-10T02:08:56.689Z,12.00
2019-05-10T02:09:56.709Z,12.90
2019-05-10T02:09:58.214Z,12.73
2019-05-10T02:10:56.734Z,11.80
2019-05-10T02:11:56.739Z,11.50
2019-05-10T02:12:27.136Z,12.87
2019-05-10T02:12:56.757Z,12.10
2019-05-10T02:13:56.772Z,12.20
2019-05-10T02:14:56.113Z,12.37
2019-05-10T02:14:56.790Z,12.40
2019-05-10T02:15:56.807Z,12.40
2019-05-10T02:16:56.825Z,12.20
2019-05-10T02:17:25.195Z,12.80
2019-05-10T02:17:56.839Z,12.80
2019-05-10T02:18:56.856Z,12.70
2019-05-10T02:19:54.097Z,12.70
2019-05-10T02:19:56.872Z,12.60
2019-05-10T02:20:56.889Z,13.30
2019-05-10T02:21:56.906Z,12.50
2019-05-10T02:22:23.079Z,12.07
2019-05-10T02:22:56.931Z,12.20
2019-05-10T02:23:56.940Z,11.50
2019-05-10T02:24:51.962Z,13.47
2019-05-10T02:24:56.957Z,12.70
2019-05-10T02:26:09.165Z,12.40
2019-05-10T02:26:56.991Z,12.40
2019-05-10T02:27:20.951Z,12.97
2019-05-10T02:27:57.009Z,12.70
2019-05-10T02:28:57.027Z,12.40
2019-05-10T02:29:49.844Z,13.47
2019-05-10T02:29:57.039Z,11.40
2019-05-10T02:30:57.060Z,11.60
2019-05-10T02:31:57.075Z,11.20
2019-05-10T02:32:18.763Z,12.33
2019-05-10T02:32:57.101Z,11.20
2019-05-10T02:33:57.111Z,12.10
2019-05-10T02:34:47.709Z,11.53
2019-05-10T02:34:57.132Z,11.20
2019-05-10T02:35:57.143Z,11.40
2019-05-10T02:36:57.157Z,11.10
2019-05-10T02:37:16.718Z,11.83
2019-05-10T02:37:57.175Z,10.90
2019-05-10T02:38:57.191Z,11.20
2019-05-10T02:39:45.620Z,12.23
2019-05-10T02:39:57.209Z,11.00
2019-05-10T02:40:57.225Z,10.40
2019-05-10T02:41:57.240Z,10.70
2019-05-10T02:42:14.645Z,11.10
2019-05-10T02:42:57.261Z,11.60
2019-05-10T02:43:57.282Z,10.50
2019-05-10T02:44:43.595Z,11.47
2019-05-10T02:44:57.299Z,11.10
2019-05-10T02:45:57.311Z,10.40
2019-05-10T02:46:57.324Z,10.30
2019-05-10T02:47:12.598Z,10.57
2019-05-10T02:47:57.343Z,9.80
2019-05-10T02:48:57.361Z,9.90
2019-05-10T02:49:41.588Z,10.60
2019-05-10T02:49:59.234Z,9.70
2019-05-10T02:50:57.393Z,9.80
2019-05-10T02:51:57.411Z,9.40
2019-05-10T02:52:10.581Z,9.47
2019-05-10T02:52:57.433Z,10.30
2019-05-10T02:53:57.442Z,9.80
2019-05-10T02:54:39.471Z,10.27
2019-05-10T02:54:57.458Z,9.80
2019-05-10T02:55:57.494Z,9.50
2019-05-10T02:56:57.493Z,9.20
2019-05-10T02:57:08.824Z,9.90
2019-05-10T02:57:57.511Z,9.40
2019-05-10T02:58:57.529Z,9.50
2019-05-10T02:59:37.848Z,10.27
2019-05-10T02:59:57.541Z,9.00
2019-05-10T03:00:57.562Z,9.70
2019-05-10T03:01:57.575Z,10.30
2019-05-10T03:02:07.584Z,9.57
2019-05-10T03:02:57.597Z,9.60
2019-05-10T03:03:57.616Z,9.70
2019-05-10T03:04:36.461Z,9.20
2019-05-10T03:04:57.629Z,9.90
2019-05-10T03:05:57.649Z,9.10
2019-05-10T03:06:57.663Z,9.80
2019-05-10T03:07:06.059Z,10.20
2019-05-10T03:07:57.762Z,10.00
2019-05-10T03:08:57.697Z,9.10
2019-05-10T03:09:35.569Z,9.00
2019-05-10T03:09:57.714Z,9.40
2019-05-10T03:10:57.727Z,9.30
2019-05-10T03:11:57.749Z,9.30
2019-05-10T03:12:21.748Z,10.07
2019-05-10T03:12:57.759Z,9.10
2019-05-10T03:13:57.779Z,9.60
2019-05-10T03:14:52.897Z,8.87
2019-05-10T03:14:57.938Z,8.90
2019-05-10T03:15:57.812Z,8.80
2019-05-10T03:16:57.826Z,8.80
2019-05-10T03:17:21.884Z,9.40
2019-05-10T03:17:57.843Z,8.70
2019-05-10T03:18:57.861Z,9.40
2019-05-10T03:19:52.364Z,9.27
2019-05-10T03:19:57.879Z,9.50
2019-05-10T03:20:57.895Z,9.70
2019-05-10T03:21:57.910Z,8.40
2019-05-10T03:22:21.818Z,9.40
2019-05-10T03:22:57.930Z,9.10
2019-05-10T03:23:57.950Z,8.90
2019-05-10T03:24:50.705Z,9.97
2019-05-10T03:24:57.973Z,8.90
2019-05-10T03:25:57.981Z,8.70
2019-05-10T03:26:58.062Z,9.20
2019-05-10T03:27:19.704Z,9.10
2019-05-10T03:27:58.038Z,9.20
2019-05-10T03:28:58.034Z,9.00
2019-05-10T03:29:48.692Z,9.27
2019-05-10T03:29:58.069Z,9.70
2019-05-10T03:30:58.071Z,9.20
2019-05-10T03:31:58.107Z,8.70
2019-05-10T03:32:17.786Z,9.07
2019-05-10T03:32:58.125Z,9.20
2019-05-10T03:33:58.167Z,10.00
2019-05-10T03:34:46.780Z,9.40
2019-05-10T03:34:58.203Z,8.70
2019-05-10T03:35:58.195Z,8.60
2019-05-10T03:36:58.173Z,8.90
2019-05-10T03:37:15.687Z,8.20
2019-05-10T03:37:58.189Z,9.00
2019-05-10T03:38:58.194Z,10.50
2019-05-10T03:39:44.664Z,27.63
2019-05-10T03:39:58.217Z,22.10
2019-05-10T03:40:58.234Z,33.50
2019-05-10T03:41:58.246Z,36.80
2019-05-10T03:42:13.656Z,37.37
2019-05-10T03:42:58.263Z,44.40
2019-05-10T03:43:58.275Z,28.70
2019-05-10T03:44:42.644Z,31.70
2019-05-10T03:44:58.300Z,39.10
2019-05-10T03:45:58.308Z,38.40
2019-05-10T03:46:58.328Z,23.50
2019-05-10T03:47:11.531Z,13.10
2019-05-10T03:47:58.351Z,14.80
2019-05-10T03:48:58.365Z,11.90
2019-05-10T03:49:40.643Z,10.90
2019-05-10T03:49:58.386Z,10.10
2019-05-10T03:50:58.403Z,9.80
2019-05-10T03:51:58.411Z,10.80
2019-05-10T03:52:09.617Z,17.77
2019-05-10T03:52:58.425Z,16.80
2019-05-10T03:53:58.443Z,16.00
2019-05-10T03:54:38.621Z,11.53
2019-05-10T03:54:58.461Z,9.70
2019-05-10T03:55:58.476Z,9.40
2019-05-10T03:57:11.856Z,9.30
2019-05-10T03:57:13.658Z,11.17
2019-05-10T03:57:58.510Z,10.30
2019-05-10T03:58:58.525Z,12.00
2019-05-10T03:59:38.146Z,11.53
2019-05-10T03:59:58.542Z,11.00
2019-05-10T04:00:58.562Z,10.60
2019-05-10T04:01:58.577Z,10.80
2019-05-10T04:02:07.227Z,10.77
2019-05-10T04:02:58.598Z,10.40
2019-05-10T04:03:58.609Z,9.50
2019-05-10T04:04:36.330Z,10.40
2019-05-10T04:04:58.631Z,10.60
2019-05-10T04:05:58.644Z,10.20
2019-05-10T04:06:58.669Z,9.70
2019-05-10T04:07:05.317Z,10.27
2019-05-10T04:07:58.676Z,9.20
2019-05-10T04:08:58.694Z,10.30
2019-05-10T04:09:34.303Z,10.13
2019-05-10T04:09:58.715Z,10.00
2019-05-10T04:10:58.729Z,9.70
2019-05-10T04:11:58.749Z,9.90
2019-05-10T04:12:03.198Z,10.37
2019-05-10T04:12:58.761Z,10.30
2019-05-10T04:13:58.780Z,9.90
2019-05-10T04:14:32.180Z,10.20
2019-05-10T04:14:58.794Z,9.40
2019-05-10T04:15:58.810Z,10.00
2019-05-10T04:16:58.825Z,9.60
2019-05-10T04:17:01.075Z,10.43
2019-05-10T04:17:58.842Z,9.70
2019-05-10T04:18:58.860Z,10.10
2019-05-10T04:19:30.092Z,10.90
2019-05-10T04:19:58.891Z,9.50
2019-05-10T04:20:58.892Z,9.60
2019-05-10T04:21:58.913Z,9.60
2019-05-10T04:21:59.051Z,11.07
2019-05-10T04:22:58.925Z,9.80
2019-05-10T04:23:58.952Z,10.50
2019-05-10T04:24:28.055Z,10.80
2019-05-10T04:24:58.958Z,11.20
2019-05-10T04:25:58.980Z,10.70
2019-05-10T04:26:56.935Z,10.30
2019-05-10T04:26:58.992Z,9.70
2019-05-10T04:27:59.010Z,9.30
2019-05-10T04:28:59.046Z,10.60
2019-05-10T04:29:26.029Z,10.80
2019-05-10T04:29:59.041Z,10.50
2019-05-10T04:30:59.061Z,10.30
2019-05-10T04:31:55.027Z,11.87
2019-05-10T04:31:59.075Z,10.30
2019-05-10T04:32:59.093Z,10.40
2019-05-10T04:33:59.118Z,10.40
2019-05-10T04:34:24.022Z,12.00
2019-05-10T04:34:59.129Z,10.00
2019-05-10T04:35:59.153Z,11.70
2019-05-10T04:36:52.945Z,13.60
2019-05-10T04:36:59.166Z,9.80
2019-05-10T04:37:59.182Z,10.40
2019-05-10T04:38:59.196Z,10.70
2019-05-10T04:39:22.023Z,11.10
2019-05-10T04:39:59.215Z,10.20
2019-05-10T04:40:59.239Z,10.30
2019-05-10T04:41:50.906Z,10.67
2019-05-10T04:41:59.247Z,10.00
2019-05-10T04:42:59.263Z,8.80
2019-05-10T04:43:59.277Z,9.60
2019-05-10T04:44:19.897Z,10.50
2019-05-10T04:44:59.301Z,10.10
2019-05-10T04:45:59.316Z,9.80
2019-05-10T04:46:48.885Z,10.57
2019-05-10T04:46:59.337Z,10.00
2019-05-10T04:47:59.354Z,9.40
2019-05-10T04:48:59.363Z,9.40
2019-05-10T04:49:17.878Z,9.93
2019-05-10T04:49:59.389Z,9.70
2019-05-10T04:50:59.402Z,10.40
2019-05-10T04:51:46.766Z,10.63
2019-05-10T04:51:59.415Z,9.10
2019-05-10T04:52:59.442Z,10.10
2019-05-10T04:53:59.462Z,9.80
2019-05-10T04:54:15.636Z,11.07
2019-05-10T04:54:59.471Z,9.50
2019-05-10T04:55:59.487Z,10.20
2019-05-10T04:56:44.507Z,11.03
2019-05-10T04:57:00.211Z,10.10
2019-05-10T04:57:59.517Z,10.40
2019-05-10T04:58:59.550Z,10.30
2019-05-10T04:59:13.434Z,11.30
2019-05-10T04:59:59.551Z,10.20
2019-05-10T05:00:59.609Z,9.90
2019-05-10T05:01:42.428Z,12.37
2019-05-10T05:01:59.750Z,10.10
2019-05-10T05:02:59.610Z,10.10
2019-05-10T05:03:59.624Z,11.00
2019-05-10T05:04:11.410Z,10.87
2019-05-10T05:04:59.638Z,10.20
2019-05-10T05:05:59.668Z,9.90
2019-05-10T05:06:40.310Z,11.60
2019-05-10T05:06:59.801Z,9.90
2019-05-10T05:07:59.685Z,10.00
2019-05-10T05:08:59.703Z,10.40
2019-05-10T05:09:09.387Z,12.40
2019-05-10T05:09:59.721Z,10.30
2019-05-10T05:10:59.737Z,10.10
2019-05-10T05:11:38.293Z,12.50
2019-05-10T05:11:59.758Z,10.80
2019-05-10T05:12:59.772Z,11.60
2019-05-10T05:13:59.789Z,12.00
2019-05-10T05:14:09.447Z,13.23
2019-05-10T05:14:59.805Z,13.10
2019-05-10T05:15:59.823Z,12.20
2019-05-10T05:16:37.799Z,13.17
2019-05-10T05:16:59.844Z,13.10
2019-05-10T05:17:59.860Z,12.50
2019-05-10T05:18:59.876Z,12.60
2019-05-10T05:19:06.786Z,13.37
2019-05-10T05:19:59.898Z,12.70
2019-05-10T05:20:59.912Z,13.10
2019-05-10T05:21:35.680Z,17.47
2019-05-10T05:21:59.931Z,13.80
2019-05-10T05:22:59.952Z,13.80
2019-05-10T05:23:59.969Z,13.40
2019-05-10T05:24:04.788Z,13.80
2019-05-10T05:25:01.318Z,14.20
2019-05-10T05:25:59.997Z,13.90
2019-05-10T05:26:33.664Z,12.63
2019-05-10T05:27:00.023Z,12.70
2019-05-10T05:28:07.971Z,12.90
2019-05-10T05:29:00.055Z,13.00
2019-05-10T05:29:02.774Z,13.90
2019-05-10T05:30:00.070Z,12.50
2019-05-10T05:31:00.085Z,12.30
2019-05-10T05:31:31.757Z,13.73
2019-05-10T05:32:01.435Z,12.70
2019-05-10T05:33:00.146Z,12.70
2019-05-10T05:34:04.779Z,13.10
2019-05-10T05:34:05.057Z,13.00
2019-05-10T05:35:00.156Z,13.20
2019-05-10T05:36:02.312Z,13.30
2019-05-10T05:36:31.271Z,13.33
2019-05-10T05:37:00.192Z,14.30
2019-05-10T05:38:00.208Z,13.30
2019-05-10T05:39:00.226Z,13.50
2019-05-10T05:39:00.275Z,13.90
2019-05-10T05:40:00.242Z,12.90
2019-05-10T05:41:00.261Z,13.20
2019-05-10T05:41:31.863Z,13.93
2019-05-10T05:42:00.276Z,13.50
2019-05-10T05:43:02.666Z,13.90
2019-05-10T05:43:59.882Z,14.53
2019-05-10T05:44:00.311Z,13.90
2019-05-10T05:45:00.338Z,13.50
2019-05-10T05:46:00.350Z,12.50
2019-05-10T05:46:29.061Z,13.17
2019-05-10T05:47:04.054Z,13.50
2019-05-10T05:48:00.380Z,13.30
2019-05-10T05:48:57.983Z,14.60
2019-05-10T05:49:00.397Z,13.80
2019-05-10T05:50:00.415Z,14.10
2019-05-10T05:51:00.430Z,14.20
2019-05-10T05:51:26.974Z,14.77
2019-05-10T05:52:00.455Z,13.80
2019-05-10T05:53:00.469Z,12.80
2019-05-10T05:53:55.885Z,13.50
2019-05-10T05:54:03.754Z,12.60
2019-05-10T05:55:00.501Z,13.40
2019-05-10T05:56:03.121Z,12.30
2019-05-10T05:56:24.958Z,12.33
2019-05-10T05:57:00.540Z,12.80
2019-05-10T05:58:04.916Z,12.60
2019-05-10T05:58:53.936Z,14.03
2019-05-10T05:59:00.572Z,11.50
2019-05-10T06:00:03.990Z,11.70
2019-05-10T06:01:00.615Z,12.20
2019-05-10T06:01:26.219Z,12.53
2019-05-10T06:02:07.195Z,11.80
2019-05-10T06:03:00.645Z,11.80
2019-05-10T06:03:53.355Z,13.33
2019-05-10T06:04:06.369Z,12.20
2019-05-10T06:05:00.680Z,12.10
2019-05-10T06:06:00.697Z,11.50
2019-05-10T06:06:23.588Z,12.10
2019-05-10T06:07:00.735Z,11.40
2019-05-10T06:08:00.733Z,11.30
2019-05-10T06:08:54.472Z,10.43
2019-05-10T06:09:01.666Z,10.60
2019-05-10T06:10:00.768Z,9.20
2019-05-10T06:11:00.793Z,8.70
2019-05-10T06:11:23.415Z,9.40
2019-05-10T06:12:00.808Z,8.70
2019-05-10T06:13:00.828Z,8.50
2019-05-10T06:13:52.287Z,9.57
2019-05-10T06:14:03.745Z,8.10
2019-05-10T06:15:00.864Z,8.70
2019-05-10T06:16:06.903Z,8.30
2019-05-10T06:16:22.318Z,9.23
2019-05-10T06:17:00.906Z,8.30
2019-05-10T06:18:03.229Z,8.50
2019-05-10T06:18:51.416Z,8.10
2019-05-10T06:19:00.942Z,7.90
2019-05-10T06:20:06.135Z,7.10
2019-05-10T06:21:00.978Z,7.70
2019-05-10T06:21:24.441Z,9.23
2019-05-10T06:22:04.588Z,7.10
2019-05-10T06:23:06.896Z,7.90
2019-05-10T06:23:50.922Z,7.60
2019-05-10T06:24:01.037Z,6.90
2019-05-10T06:25:01.054Z,7.30
2019-05-10T06:26:01.070Z,7.10
2019-05-10T06:26:26.640Z,8.50
2019-05-10T06:27:03.367Z,7.30
2019-05-10T06:28:01.113Z,8.00
2019-05-10T06:29:03.351Z,7.83
2019-05-10T06:29:04.127Z,8.20
2019-05-10T06:30:01.149Z,7.90
2019-05-10T06:31:01.169Z,7.30
2019-05-10T06:31:21.074Z,8.20
2019-05-10T06:32:01.186Z,7.80
2019-05-10T06:33:11.841Z,7.90
2019-05-10T06:33:49.974Z,8.23
2019-05-10T06:34:01.225Z,7.80
2019-05-10T06:35:01.249Z,7.50
2019-05-10T06:36:01.270Z,7.60
2019-05-10T06:36:19.084Z,8.53
2019-05-10T06:37:01.282Z,7.90
2019-05-10T06:38:01.294Z,8.20
2019-05-10T06:38:47.945Z,7.77
2019-05-10T06:39:01.321Z,7.40
2019-05-10T06:40:01.330Z,8.20
2019-05-10T06:41:01.351Z,9.30
2019-05-10T06:41:19.103Z,9.33
2019-05-10T06:42:01.368Z,8.10
2019-05-10T06:43:01.410Z,8.10
2019-05-10T06:43:51.185Z,8.03
2019-05-10T06:44:01.403Z,7.90
2019-05-10T06:45:05.034Z,8.20
2019-05-10T06:46:01.440Z,8.10
2019-05-10T06:46:18.111Z,8.40
2019-05-10T06:47:02.307Z,8.10
2019-05-10T06:48:01.483Z,8.20
2019-05-10T06:48:47.091Z,7.80
2019-05-10T06:49:08.114Z,8.20
2019-05-10T06:50:01.513Z,7.90
2019-05-10T06:51:02.885Z,8.00
2019-05-10T06:51:22.134Z,8.20
2019-05-10T06:52:01.547Z,8.00
2019-05-10T06:53:07.581Z,7.90
2019-05-10T06:53:53.613Z,8.13
2019-05-10T06:54:01.584Z,7.70
2019-05-10T06:55:01.608Z,7.10
2019-05-10T06:56:01.617Z,7.10
2019-05-10T06:56:21.640Z,8.00
2019-05-10T06:57:02.043Z,7.20
2019-05-10T06:58:01.653Z,7.30
2019-05-10T06:58:50.647Z,8.40
2019-05-10T06:59:12.786Z,7.50
2019-05-10T07:00:06.163Z,7.20
2019-05-10T07:01:01.708Z,7.40
2019-05-10T07:01:19.742Z,7.57
2019-05-10T07:02:01.731Z,7.20
2019-05-10T07:03:01.748Z,7.40
2019-05-10T07:03:48.622Z,7.57
2019-05-10T07:04:01.768Z,7.50
2019-05-10T07:05:01.830Z,7.50
2019-05-10T07:06:01.799Z,7.50
2019-05-10T07:06:17.642Z,8.90
2019-05-10T07:07:01.817Z,7.10
2019-05-10T07:08:13.916Z,7.80
2019-05-10T07:08:51.589Z,10.20
2019-05-10T07:09:01.858Z,8.80
2019-05-10T07:10:12.576Z,11.20
2019-05-10T07:11:01.886Z,8.10
2019-05-10T07:11:17.146Z,7.87
2019-05-10T07:12:01.904Z,8.10
2019-05-10T07:13:03.421Z,6.80
2019-05-10T07:13:47.162Z,6.63
2019-05-10T07:14:01.938Z,8.40
2019-05-10T07:15:03.506Z,7.50
2019-05-10T07:16:01.977Z,6.60
2019-05-10T07:16:24.017Z,7.57
2019-05-10T07:17:03.013Z,7.20
2019-05-10T07:18:02.018Z,7.90
2019-05-10T07:18:47.289Z,7.73
2019-05-10T07:19:02.268Z,8.10
2019-05-10T07:20:02.044Z,7.90
2019-05-10T07:21:06.825Z,7.90
2019-05-10T07:21:16.385Z,8.57
2019-05-10T07:22:02.079Z,8.00
2019-05-10T07:23:06.132Z,8.70
2019-05-10T07:23:47.619Z,9.57
2019-05-10T07:24:02.117Z,8.50
2019-05-10T07:25:04.383Z,8.90
2019-05-10T07:26:02.152Z,8.70
2019-05-10T07:26:17.355Z,8.87
2019-05-10T07:27:02.985Z,8.50
2019-05-10T07:28:02.189Z,8.80
2019-05-10T07:28:46.414Z,8.37
2019-05-10T07:29:02.204Z,9.10
2019-05-10T07:30:02.221Z,8.70
2019-05-10T07:31:02.242Z,9.10
2019-05-10T07:31:15.409Z,9.13
2019-05-10T07:32:02.255Z,9.80
2019-05-10T07:33:02.365Z,9.90
2019-05-10T07:33:44.280Z,10.53
2019-05-10T07:34:02.293Z,9.70
2019-05-10T07:35:02.317Z,10.80
2019-05-10T07:36:02.336Z,10.10
2019-05-10T07:36:15.102Z,9.40
2019-05-10T07:37:02.342Z,9.60
2019-05-10T07:38:02.359Z,9.40
2019-05-10T07:38:43.888Z,9.40
2019-05-10T07:39:02.913Z,9.50
2019-05-10T07:40:03.548Z,9.00
2019-05-10T07:41:02.422Z,8.80
2019-05-10T07:41:12.913Z,9.13
2019-05-10T07:42:06.569Z,9.00
2019-05-10T07:43:02.448Z,9.30
2019-05-10T07:43:41.917Z,9.67
2019-05-10T07:44:07.876Z,9.20
2019-05-10T07:45:02.485Z,9.60
2019-05-10T07:46:06.042Z,9.60
2019-05-10T07:46:10.902Z,9.40
2019-05-10T07:47:02.516Z,9.70
2019-05-10T07:48:07.883Z,9.60
2019-05-10T07:48:41.286Z,10.80
2019-05-10T07:49:02.548Z,10.00
2019-05-10T07:50:03.949Z,10.60
2019-05-10T07:51:02.591Z,9.90
2019-05-10T07:51:10.419Z,9.73
2019-05-10T07:52:04.304Z,9.80
2019-05-10T07:53:02.617Z,10.00
2019-05-10T07:53:39.307Z,9.80
2019-05-10T07:54:04.609Z,9.60
2019-05-10T07:55:02.656Z,9.40
2019-05-10T07:56:06.127Z,9.70
2019-05-10T07:56:08.396Z,9.70
2019-05-10T07:57:02.694Z,9.50
2019-05-10T07:58:04.948Z,8.80
2019-05-10T07:58:38.064Z,9.77
2019-05-10T07:59:02.739Z,9.50
2019-05-10T08:00:03.673Z,9.40
2019-05-10T08:01:02.758Z,9.40
2019-05-10T08:01:08.149Z,8.93
2019-05-10T08:02:05.850Z,9.00
2019-05-10T08:03:13.115Z,8.40
2019-05-10T08:03:44.146Z,9.30
2019-05-10T08:04:02.806Z,9.10
2019-05-10T08:05:04.932Z,9.20
2019-05-10T08:06:02.841Z,9.50
2019-05-10T08:06:08.321Z,9.60
2019-05-10T08:07:02.856Z,9.70
2019-05-10T08:08:02.876Z,10.20
2019-05-10T08:08:39.103Z,11.00
2019-05-10T08:09:06.545Z,9.70
2019-05-10T08:10:04.784Z,10.10
2019-05-10T08:11:02.923Z,9.80
2019-05-10T08:11:08.624Z,10.07
2019-05-10T08:12:05.061Z,9.70
2019-05-10T08:13:03.526Z,9.30
2019-05-10T08:13:39.397Z,9.33
2019-05-10T08:14:06.017Z,8.80
2019-05-10T08:15:02.992Z,10.20
2019-05-10T08:16:05.365Z,9.20
2019-05-10T08:16:11.890Z,10.33
2019-05-10T08:17:06.295Z,9.30
2019-05-10T08:18:03.042Z,9.80
2019-05-10T08:18:42.003Z,10.60
2019-05-10T08:19:03.062Z,10.30
2019-05-10T08:20:03.085Z,9.70
2019-05-10T08:21:17.665Z,9.30
2019-05-10T08:21:20.962Z,10.13
2019-05-10T08:22:04.499Z,9.70
2019-05-10T08:23:03.129Z,9.80
2019-05-10T08:23:41.065Z,9.43
2019-05-10T08:24:05.668Z,9.80
2019-05-10T08:25:03.162Z,9.40
2019-05-10T08:26:04.507Z,9.50
2019-05-10T08:26:17.517Z,9.50
2019-05-10T08:27:07.990Z,9.20
2019-05-10T08:28:05.442Z,10.00
2019-05-10T08:28:44.428Z,9.27
2019-05-10T08:29:07.816Z,9.30
2019-05-10T08:30:20.709Z,9.20
2019-05-10T08:31:03.263Z,8.80
2019-05-10T08:31:12.537Z,9.57
2019-05-10T08:32:03.285Z,9.00
2019-05-10T08:33:09.473Z,9.20
2019-05-10T08:33:44.312Z,10.27
2019-05-10T08:34:03.319Z,9.20
2019-05-10T08:35:05.416Z,9.10
2019-05-10T08:36:05.532Z,10.20
2019-05-10T08:36:12.235Z,9.60
2019-05-10T08:37:03.368Z,9.40
2019-05-10T08:38:04.586Z,9.40
2019-05-10T08:38:47.217Z,10.80
2019-05-10T08:39:09.989Z,9.80
2019-05-10T08:40:03.423Z,8.80
2019-05-10T08:41:08.005Z,9.30
2019-05-10T08:41:14.808Z,9.83
2019-05-10T08:42:13.538Z,9.00
2019-05-10T08:43:07.405Z,9.50
2019-05-10T08:43:43.174Z,9.77
2019-05-10T08:44:04.918Z,9.60
2019-05-10T08:45:08.448Z,9.20
2019-05-10T08:46:03.535Z,9.50
2019-05-10T08:46:12.250Z,11.47
2019-05-10T08:47:07.589Z,9.30
2019-05-10T08:48:06.953Z,9.60
2019-05-10T08:48:46.712Z,9.43
2019-05-10T08:49:03.583Z,8.80
2019-05-10T08:50:18.591Z,10.10
2019-05-10T08:51:06.474Z,9.90
2019-05-10T08:51:12.608Z,10.20
2019-05-10T08:52:03.638Z,10.30
2019-05-10T08:53:10.562Z,10.30
2019-05-10T08:53:42.262Z,10.20
2019-05-10T08:54:03.671Z,9.70
2019-05-10T08:55:03.693Z,10.10
2019-05-10T08:56:07.537Z,9.80
2019-05-10T08:56:16.081Z,10.43
2019-05-10T08:57:05.371Z,10.40
2019-05-10T08:58:03.750Z,10.50
2019-05-10T08:58:42.363Z,10.60
2019-05-10T08:59:04.079Z,9.50
2019-05-10T09:00:08.823Z,10.20
2019-05-10T09:01:16.704Z,11.30
2019-05-10T09:01:22.210Z,11.13
2019-05-10T09:02:03.813Z,10.90
2019-05-10T09:03:09.379Z,10.10
2019-05-10T09:03:42.133Z,10.00
2019-05-10T09:04:06.872Z,10.60
2019-05-10T09:05:03.872Z,10.40
2019-05-10T09:06:11.505Z,10.90
2019-05-10T09:06:16.494Z,11.47
2019-05-10T09:07:03.906Z,10.70
2019-05-10T09:08:05.752Z,9.60
2019-05-10T09:08:43.127Z,10.80
2019-05-10T09:09:08.189Z,10.10
2019-05-10T09:10:03.958Z,9.70
2019-05-10T09:11:06.831Z,9.50
2019-05-10T09:11:12.374Z,10.37
2019-05-10T09:12:08.947Z,10.30
2019-05-10T09:13:04.062Z,10.50
2019-05-10T09:13:45.720Z,10.63
2019-05-10T09:14:04.058Z,10.70
2019-05-10T09:15:09.759Z,10.20
2019-05-10T09:16:04.120Z,9.70
2019-05-10T09:16:13.626Z,9.90
2019-05-10T09:17:04.605Z,9.40
2019-05-10T09:18:07.342Z,9.40
2019-05-10T09:18:46.130Z,10.93
2019-05-10T09:19:04.145Z,9.70
2019-05-10T09:20:04.200Z,10.00
2019-05-10T09:21:09.163Z,9.70